sensor_id;sensor_type;location;lat;lon;timestamp;P1;durP1;ratioP1;P2;durP2;ratioP2
68357;SDS011;55276;53.260;50.222;2022-07-29T00:01:00;10.10;;;7.43;;
68357;SDS011;55276;53.260;50.222;2022-07-29T00:03:26;11.65;;;8.02;;
68357;SDS011;55276;53.260;50.222;2022-07-29T00:05:52;11.38;;;7.85;;
68357;SDS011;55276;53.260;50.222;2022-07-29T00:08:18;13.82;;;7.95;;
68357;SDS011;55276;53.260;50.222;2022-07-29T00:10:44;13.63;;;8.00;;
68357;SDS011;55276;53.260;50.222;2022-07-29T00:13:10;14.38;;;7.72;;
68357;SDS011;55276;53.260;50.222;2022-07-29T00:15:36;10.25;;;7.65;;
68357;SDS011;55276;53.260;50.222;2022-07-29T00:18:03;12.30;;;7.93;;
68357;SDS011;55276;53.260;50.222;2022-07-29T00:20:29;11.27;;;7.57;;
68357;SDS011;55276;53.260;50.222;2022-07-29T00:22:55;9.77;;;7.60;;
68357;SDS011;55276;53.260;50.222;2022-07-29T00:25:21;13.00;;;7.65;;
68357;SDS011;55276;53.260;50.222;2022-07-29T00:27:47;12.90;;;7.88;;
68357;SDS011;55276;53.260;50.222;2022-07-29T00:30:14;11.35;;;7.97;;
68357;SDS011;55276;53.260;50.222;2022-07-29T00:32:40;11.83;;;7.60;;
68357;SDS011;55276;53.260;50.222;2022-07-29T00:35:08;14.35;;;8.07;;
68357;SDS011;55276;53.260;50.222;2022-07-29T00:37:53;15.35;;;8.48;;
68357;SDS011;55276;53.260;50.222;2022-07-29T00:40:19;9.85;;;7.32;;
68357;SDS011;55276;53.260;50.222;2022-07-29T00:42:47;10.00;;;7.37;;
68357;SDS011;55276;53.260;50.222;2022-07-29T00:45:15;13.65;;;7.75;;
68357;SDS011;55276;53.260;50.222;2022-07-29T00:47:42;11.17;;;7.67;;
68357;SDS011;55276;53.260;50.222;2022-07-29T00:50:09;11.45;;;7.60;;
68357;SDS011;55276;53.260;50.222;2022-07-29T00:52:36;14.90;;;8.00;;
68357;SDS011;55276;53.260;50.222;2022-07-29T00:55:04;11.25;;;7.70;;
68357;SDS011;55276;53.260;50.222;2022-07-29T00:57:32;12.18;;;7.53;;
68357;SDS011;55276;53.260;50.222;2022-07-29T00:59:59;11.90;;;7.63;;
68357;SDS011;55276;53.260;50.222;2022-07-29T01:02:26;11.95;;;7.63;;
68357;SDS011;55276;53.260;50.222;2022-07-29T01:04:52;12.57;;;7.82;;
68357;SDS011;55276;53.260;50.222;2022-07-29T01:07:18;12.40;;;7.57;;
68357;SDS011;55276;53.260;50.222;2022-07-29T01:09:45;11.20;;;7.80;;
68357;SDS011;55276;53.260;50.222;2022-07-29T01:12:18;10.57;;;7.60;;
68357;SDS011;55276;53.260;50.222;2022-07-29T01:14:49;12.60;;;7.40;;
68357;SDS011;55276;53.260;50.222;2022-07-29T01:19:56;12.65;;;7.28;;
68357;SDS011;55276;53.260;50.222;2022-07-29T01:22:47;12.23;;;8.10;;
68357;SDS011;55276;53.260;50.222;2022-07-29T01:31:02;12.68;;;8.10;;
68357;SDS011;55276;53.260;50.222;2022-07-29T01:33:31;11.35;;;7.80;;
68357;SDS011;55276;53.260;50.222;2022-07-29T01:36:14;14.60;;;7.85;;
68357;SDS011;55276;53.260;50.222;2022-07-29T01:39:04;13.82;;;7.78;;
68357;SDS011;55276;53.260;50.222;2022-07-29T01:41:37;14.48;;;8.07;;
68357;SDS011;55276;53.260;50.222;2022-07-29T01:44:20;11.38;;;7.75;;
68357;SDS011;55276;53.260;50.222;2022-07-29T01:46:54;13.18;;;8.18;;
68357;SDS011;55276;53.260;50.222;2022-07-29T01:49:29;12.95;;;7.65;;
68357;SDS011;55276;53.260;50.222;2022-07-29T01:52:02;11.48;;;7.45;;
68357;SDS011;55276;53.260;50.222;2022-07-29T01:54:34;10.85;;;7.85;;
68357;SDS011;55276;53.260;50.222;2022-07-29T01:57:04;12.20;;;7.60;;
68357;SDS011;55276;53.260;50.222;2022-07-29T01:59:33;15.82;;;8.10;;
68357;SDS011;55276;53.260;50.222;2022-07-29T02:02:01;11.52;;;7.80;;
68357;SDS011;55276;53.260;50.222;2022-07-29T02:04:28;12.95;;;7.78;;
68357;SDS011;55276;53.260;50.222;2022-07-29T02:06:58;10.02;;;7.80;;
68357;SDS011;55276;53.260;50.222;2022-07-29T02:09:27;12.10;;;7.63;;
68357;SDS011;55276;53.260;50.222;2022-07-29T02:11:55;15.00;;;7.90;;
68357;SDS011;55276;53.260;50.222;2022-07-29T02:14:22;13.75;;;8.32;;
68357;SDS011;55276;53.260;50.222;2022-07-29T02:16:51;11.07;;;7.82;;
68357;SDS011;55276;53.260;50.222;2022-07-29T02:19:19;11.82;;;8.13;;
68357;SDS011;55276;53.260;50.222;2022-07-29T02:21:47;14.57;;;8.20;;
68357;SDS011;55276;53.260;50.222;2022-07-29T02:24:16;9.60;;;7.57;;
68357;SDS011;55276;53.260;50.222;2022-07-29T02:26:43;12.88;;;8.00;;
68357;SDS011;55276;53.260;50.222;2022-07-29T02:29:10;12.88;;;7.53;;
68357;SDS011;55276;53.260;50.222;2022-07-29T02:31:38;12.73;;;7.82;;
68357;SDS011;55276;53.260;50.222;2022-07-29T02:34:09;14.25;;;8.35;;
68357;SDS011;55276;53.260;50.222;2022-07-29T02:36:36;12.65;;;7.80;;
68357;SDS011;55276;53.260;50.222;2022-07-29T02:39:04;11.40;;;8.38;;
68357;SDS011;55276;53.260;50.222;2022-07-29T02:41:43;13.75;;;7.85;;
68357;SDS011;55276;53.260;50.222;2022-07-29T02:44:13;12.75;;;7.63;;
68357;SDS011;55276;53.260;50.222;2022-07-29T02:46:53;15.45;;;8.18;;
68357;SDS011;55276;53.260;50.222;2022-07-29T02:52:33;13.73;;;8.00;;
68357;SDS011;55276;53.260;50.222;2022-07-29T03:00:06;16.80;;;8.77;;
68357;SDS011;55276;53.260;50.222;2022-07-29T03:02:35;13.27;;;8.65;;
68357;SDS011;55276;53.260;50.222;2022-07-29T03:05:04;15.50;;;8.40;;
68357;SDS011;55276;53.260;50.222;2022-07-29T03:07:33;16.38;;;8.93;;
68357;SDS011;55276;53.260;50.222;2022-07-29T03:10:00;17.50;;;9.13;;
68357;SDS011;55276;53.260;50.222;2022-07-29T03:12:28;17.30;;;8.88;;
68357;SDS011;55276;53.260;50.222;2022-07-29T03:14:56;13.32;;;9.13;;
68357;SDS011;55276;53.260;50.222;2022-07-29T03:17:23;17.92;;;8.57;;
68357;SDS011;55276;53.260;50.222;2022-07-29T03:19:49;16.50;;;9.38;;
68357;SDS011;55276;53.260;50.222;2022-07-29T03:22:16;21.52;;;9.65;;
68357;SDS011;55276;53.260;50.222;2022-07-29T03:24:42;23.38;;;9.40;;
68357;SDS011;55276;53.260;50.222;2022-07-29T03:27:08;14.45;;;9.13;;
68357;SDS011;55276;53.260;50.222;2022-07-29T03:29:34;15.10;;;9.57;;
68357;SDS011;55276;53.260;50.222;2022-07-29T03:32:01;16.95;;;9.50;;
68357;SDS011;55276;53.260;50.222;2022-07-29T03:34:29;15.85;;;9.07;;
68357;SDS011;55276;53.260;50.222;2022-07-29T03:36:56;17.08;;;9.68;;
68357;SDS011;55276;53.260;50.222;2022-07-29T03:39:29;20.02;;;9.63;;
68357;SDS011;55276;53.260;50.222;2022-07-29T03:41:59;21.00;;;9.63;;
68357;SDS011;55276;53.260;50.222;2022-07-29T03:44:27;21.52;;;10.27;;
68357;SDS011;55276;53.260;50.222;2022-07-29T03:46:55;20.90;;;10.10;;
68357;SDS011;55276;53.260;50.222;2022-07-29T03:49:24;21.30;;;10.40;;
68357;SDS011;55276;53.260;50.222;2022-07-29T03:51:52;20.67;;;10.23;;
68357;SDS011;55276;53.260;50.222;2022-07-29T03:54:18;19.90;;;10.15;;
68357;SDS011;55276;53.260;50.222;2022-07-29T03:56:45;15.93;;;10.63;;
68357;SDS011;55276;53.260;50.222;2022-07-29T03:59:14;19.85;;;10.57;;
68357;SDS011;55276;53.260;50.222;2022-07-29T04:01:41;23.13;;;11.98;;
68357;SDS011;55276;53.260;50.222;2022-07-29T04:04:08;22.13;;;11.77;;
68357;SDS011;55276;53.260;50.222;2022-07-29T04:06:41;22.67;;;10.68;;
68357;SDS011;55276;53.260;50.222;2022-07-29T04:09:09;20.48;;;11.23;;
68357;SDS011;55276;53.260;50.222;2022-07-29T04:11:36;24.30;;;11.23;;
68357;SDS011;55276;53.260;50.222;2022-07-29T04:14:05;29.00;;;11.65;;
68357;SDS011;55276;53.260;50.222;2022-07-29T04:16:32;24.35;;;12.07;;
68357;SDS011;55276;53.260;50.222;2022-07-29T04:18:58;24.23;;;12.10;;
68357;SDS011;55276;53.260;50.222;2022-07-29T04:21:24;25.27;;;12.77;;
68357;SDS011;55276;53.260;50.222;2022-07-29T04:23:50;21.00;;;12.25;;
68357;SDS011;55276;53.260;50.222;2022-07-29T04:26:17;22.92;;;12.20;;
68357;SDS011;55276;53.260;50.222;2022-07-29T04:28:44;22.38;;;12.02;;
68357;SDS011;55276;53.260;50.222;2022-07-29T04:31:11;21.75;;;11.48;;
68357;SDS011;55276;53.260;50.222;2022-07-29T04:33:40;23.92;;;12.40;;
68357;SDS011;55276;53.260;50.222;2022-07-29T04:36:08;15.82;;;10.70;;
68357;SDS011;55276;53.260;50.222;2022-07-29T04:38:36;24.88;;;12.48;;
68357;SDS011;55276;53.260;50.222;2022-07-29T04:41:03;21.67;;;11.65;;
68357;SDS011;55276;53.260;50.222;2022-07-29T04:43:29;24.98;;;12.50;;
68357;SDS011;55276;53.260;50.222;2022-07-29T04:45:55;22.63;;;12.10;;
68357;SDS011;55276;53.260;50.222;2022-07-29T04:48:22;21.00;;;12.18;;
68357;SDS011;55276;53.260;50.222;2022-07-29T04:50:48;24.08;;;12.20;;
68357;SDS011;55276;53.260;50.222;2022-07-29T04:53:14;25.75;;;12.45;;
68357;SDS011;55276;53.260;50.222;2022-07-29T04:55:40;26.75;;;12.35;;
68357;SDS011;55276;53.260;50.222;2022-07-29T04:58:06;27.65;;;12.48;;
68357;SDS011;55276;53.260;50.222;2022-07-29T05:00:33;32.50;;;12.88;;
68357;SDS011;55276;53.260;50.222;2022-07-29T05:02:59;24.23;;;12.57;;
68357;SDS011;55276;53.260;50.222;2022-07-29T05:05:25;26.02;;;13.40;;
68357;SDS011;55276;53.260;50.222;2022-07-29T05:07:51;19.75;;;12.30;;
68357;SDS011;55276;53.260;50.222;2022-07-29T05:10:17;20.77;;;12.70;;
68357;SDS011;55276;53.260;50.222;2022-07-29T05:12:43;28.92;;;12.35;;
68357;SDS011;55276;53.260;50.222;2022-07-29T05:15:09;21.40;;;12.10;;
68357;SDS011;55276;53.260;50.222;2022-07-29T05:17:35;21.55;;;11.48;;
68357;SDS011;55276;53.260;50.222;2022-07-29T05:20:02;23.70;;;12.23;;
68357;SDS011;55276;53.260;50.222;2022-07-29T05:22:29;25.25;;;12.43;;
68357;SDS011;55276;53.260;50.222;2022-07-29T05:24:55;21.60;;;11.85;;
68357;SDS011;55276;53.260;50.222;2022-07-29T05:27:21;19.40;;;11.45;;
68357;SDS011;55276;53.260;50.222;2022-07-29T05:29:47;22.10;;;11.85;;
68357;SDS011;55276;53.260;50.222;2022-07-29T05:32:13;26.15;;;12.48;;
68357;SDS011;55276;53.260;50.222;2022-07-29T05:34:40;20.05;;;11.48;;
68357;SDS011;55276;53.260;50.222;2022-07-29T05:37:07;22.42;;;11.45;;
68357;SDS011;55276;53.260;50.222;2022-07-29T05:39:33;19.90;;;12.02;;
68357;SDS011;55276;53.260;50.222;2022-07-29T05:41:59;18.52;;;11.30;;
68357;SDS011;55276;53.260;50.222;2022-07-29T05:44:25;18.75;;;11.55;;
68357;SDS011;55276;53.260;50.222;2022-07-29T05:46:51;21.55;;;12.30;;
68357;SDS011;55276;53.260;50.222;2022-07-29T05:49:20;20.88;;;11.48;;
68357;SDS011;55276;53.260;50.222;2022-07-29T05:51:46;18.42;;;11.65;;
68357;SDS011;55276;53.260;50.222;2022-07-29T05:54:14;21.35;;;11.30;;
68357;SDS011;55276;53.260;50.222;2022-07-29T05:56:40;17.98;;;10.68;;
68357;SDS011;55276;53.260;50.222;2022-07-29T05:59:06;18.48;;;10.60;;
68357;SDS011;55276;53.260;50.222;2022-07-29T06:01:32;19.83;;;11.35;;
68357;SDS011;55276;53.260;50.222;2022-07-29T06:03:58;17.83;;;10.77;;
68357;SDS011;55276;53.260;50.222;2022-07-29T06:06:24;29.02;;;11.65;;
68357;SDS011;55276;53.260;50.222;2022-07-29T06:08:50;20.42;;;11.32;;
68357;SDS011;55276;53.260;50.222;2022-07-29T06:11:16;19.92;;;10.82;;
68357;SDS011;55276;53.260;50.222;2022-07-29T06:13:42;15.93;;;10.90;;
68357;SDS011;55276;53.260;50.222;2022-07-29T06:16:08;23.42;;;10.95;;
68357;SDS011;55276;53.260;50.222;2022-07-29T06:18:34;19.70;;;12.05;;
68357;SDS011;55276;53.260;50.222;2022-07-29T06:21:00;20.75;;;12.18;;
68357;SDS011;55276;53.260;50.222;2022-07-29T06:23:27;20.42;;;11.43;;
68357;SDS011;55276;53.260;50.222;2022-07-29T06:25:53;20.38;;;11.10;;
68357;SDS011;55276;53.260;50.222;2022-07-29T06:28:19;17.77;;;11.23;;
68357;SDS011;55276;53.260;50.222;2022-07-29T06:30:45;22.83;;;11.65;;
68357;SDS011;55276;53.260;50.222;2022-07-29T06:33:15;15.00;;;10.10;;
68357;SDS011;55276;53.260;50.222;2022-07-29T06:35:42;16.17;;;10.40;;
68357;SDS011;55276;53.260;50.222;2022-07-29T06:38:09;16.00;;;10.05;;
68357;SDS011;55276;53.260;50.222;2022-07-29T06:40:35;18.30;;;10.63;;
68357;SDS011;55276;53.260;50.222;2022-07-29T06:43:19;14.50;;;9.73;;
68357;SDS011;55276;53.260;50.222;2022-07-29T06:45:46;17.88;;;8.68;;
68357;SDS011;55276;53.260;50.222;2022-07-29T06:48:12;15.00;;;8.98;;
68357;SDS011;55276;53.260;50.222;2022-07-29T06:50:42;17.88;;;9.05;;
68357;SDS011;55276;53.260;50.222;2022-07-29T06:53:08;17.10;;;9.52;;
68357;SDS011;55276;53.260;50.222;2022-07-29T06:55:34;17.15;;;9.85;;
68357;SDS011;55276;53.260;50.222;2022-07-29T06:58:02;18.92;;;10.50;;
68357;SDS011;55276;53.260;50.222;2022-07-29T07:00:28;13.73;;;10.27;;
68357;SDS011;55276;53.260;50.222;2022-07-29T07:02:54;21.52;;;10.88;;
68357;SDS011;55276;53.260;50.222;2022-07-29T07:05:20;18.27;;;10.60;;
68357;SDS011;55276;53.260;50.222;2022-07-29T07:07:46;19.35;;;10.82;;
68357;SDS011;55276;53.260;50.222;2022-07-29T07:10:12;20.08;;;10.43;;
68357;SDS011;55276;53.260;50.222;2022-07-29T07:12:38;18.58;;;11.07;;
68357;SDS011;55276;53.260;50.222;2022-07-29T07:15:05;15.90;;;10.38;;
68357;SDS011;55276;53.260;50.222;2022-07-29T07:17:31;19.10;;;10.45;;
68357;SDS011;55276;53.260;50.222;2022-07-29T07:19:57;23.73;;;11.03;;
68357;SDS011;55276;53.260;50.222;2022-07-29T07:22:23;18.75;;;11.00;;
68357;SDS011;55276;53.260;50.222;2022-07-29T07:24:49;23.40;;;11.35;;
68357;SDS011;55276;53.260;50.222;2022-07-29T07:27:15;15.88;;;10.48;;
68357;SDS011;55276;53.260;50.222;2022-07-29T07:29:41;16.35;;;10.80;;
68357;SDS011;55276;53.260;50.222;2022-07-29T07:32:07;17.85;;;11.38;;
68357;SDS011;55276;53.260;50.222;2022-07-29T07:34:34;19.83;;;11.00;;
68357;SDS011;55276;53.260;50.222;2022-07-29T07:37:00;23.00;;;12.75;;
68357;SDS011;55276;53.260;50.222;2022-07-29T07:39:26;16.48;;;11.63;;
68357;SDS011;55276;53.260;50.222;2022-07-29T07:41:52;18.88;;;11.02;;
68357;SDS011;55276;53.260;50.222;2022-07-29T07:44:18;16.38;;;10.43;;
68357;SDS011;55276;53.260;50.222;2022-07-29T07:46:44;20.33;;;11.40;;
68357;SDS011;55276;53.260;50.222;2022-07-29T07:49:10;21.38;;;10.20;;
68357;SDS011;55276;53.260;50.222;2022-07-29T07:51:37;19.25;;;11.00;;
68357;SDS011;55276;53.260;50.222;2022-07-29T07:54:04;17.30;;;10.73;;
68357;SDS011;55276;53.260;50.222;2022-07-29T07:56:30;19.73;;;11.40;;
68357;SDS011;55276;53.260;50.222;2022-07-29T07:58:56;25.38;;;12.40;;
68357;SDS011;55276;53.260;50.222;2022-07-29T08:01:22;23.58;;;11.40;;
68357;SDS011;55276;53.260;50.222;2022-07-29T08:03:49;18.60;;;10.77;;
68357;SDS011;55276;53.260;50.222;2022-07-29T08:06:15;23.42;;;11.30;;
68357;SDS011;55276;53.260;50.222;2022-07-29T08:08:41;18.88;;;10.35;;
68357;SDS011;55276;53.260;50.222;2022-07-29T08:11:07;22.42;;;11.07;;
68357;SDS011;55276;53.260;50.222;2022-07-29T08:13:33;18.88;;;11.65;;
68357;SDS011;55276;53.260;50.222;2022-07-29T08:15:59;19.70;;;11.98;;
68357;SDS011;55276;53.260;50.222;2022-07-29T08:18:27;19.15;;;11.00;;
68357;SDS011;55276;53.260;50.222;2022-07-29T08:20:55;21.95;;;12.32;;
68357;SDS011;55276;53.260;50.222;2022-07-29T08:25:48;18.48;;;11.32;;
68357;SDS011;55276;53.260;50.222;2022-07-29T08:28:15;17.42;;;10.85;;
68357;SDS011;55276;53.260;50.222;2022-07-29T08:30:42;22.42;;;10.73;;
68357;SDS011;55276;53.260;50.222;2022-07-29T08:33:08;18.93;;;11.23;;
68357;SDS011;55276;53.260;50.222;2022-07-29T08:35:35;17.42;;;10.88;;
68357;SDS011;55276;53.260;50.222;2022-07-29T08:38:01;17.15;;;11.05;;
68357;SDS011;55276;53.260;50.222;2022-07-29T08:42:54;25.90;;;12.25;;
68357;SDS011;55276;53.260;50.222;2022-07-29T08:45:21;19.37;;;11.00;;
68357;SDS011;55276;53.260;50.222;2022-07-29T08:47:48;16.65;;;11.00;;
68357;SDS011;55276;53.260;50.222;2022-07-29T08:50:14;16.17;;;11.63;;
68357;SDS011;55276;53.260;50.222;2022-07-29T08:52:44;17.02;;;11.65;;
68357;SDS011;55276;53.260;50.222;2022-07-29T08:55:10;18.88;;;11.38;;
68357;SDS011;55276;53.260;50.222;2022-07-29T08:57:38;21.98;;;10.90;;
68357;SDS011;55276;53.260;50.222;2022-07-29T09:00:06;20.42;;;11.27;;
68357;SDS011;55276;53.260;50.222;2022-07-29T09:02:35;17.02;;;10.15;;
68357;SDS011;55276;53.260;50.222;2022-07-29T09:05:08;14.65;;;10.32;;
68357;SDS011;55276;53.260;50.222;2022-07-29T09:07:34;18.42;;;10.43;;
68357;SDS011;55276;53.260;50.222;2022-07-29T09:10:02;16.77;;;10.65;;
68357;SDS011;55276;53.260;50.222;2022-07-29T09:12:30;16.58;;;11.18;;
68357;SDS011;55276;53.260;50.222;2022-07-29T09:14:56;19.77;;;12.00;;
68357;SDS011;55276;53.260;50.222;2022-07-29T09:17:41;25.40;;;12.00;;
68357;SDS011;55276;53.260;50.222;2022-07-29T09:20:13;22.02;;;11.20;;
68357;SDS011;55276;53.260;50.222;2022-07-29T09:22:44;17.15;;;11.65;;
68357;SDS011;55276;53.260;50.222;2022-07-29T09:25:15;16.83;;;11.65;;
68357;SDS011;55276;53.260;50.222;2022-07-29T09:30:34;18.60;;;11.57;;
68357;SDS011;55276;53.260;50.222;2022-07-29T09:33:02;17.40;;;11.82;;
68357;SDS011;55276;53.260;50.222;2022-07-29T09:35:29;19.00;;;12.68;;
68357;SDS011;55276;53.260;50.222;2022-07-29T09:37:57;24.08;;;13.05;;
68357;SDS011;55276;53.260;50.222;2022-07-29T09:40:34;18.65;;;12.15;;
68357;SDS011;55276;53.260;50.222;2022-07-29T09:43:08;16.50;;;11.67;;
68357;SDS011;55276;53.260;50.222;2022-07-29T09:45:36;17.38;;;12.50;;
68357;SDS011;55276;53.260;50.222;2022-07-29T09:48:13;20.98;;;12.73;;
68357;SDS011;55276;53.260;50.222;2022-07-29T09:50:43;19.63;;;13.00;;
68357;SDS011;55276;53.260;50.222;2022-07-29T09:53:10;22.85;;;13.50;;
68357;SDS011;55276;53.260;50.222;2022-07-29T09:55:46;19.55;;;12.10;;
68357;SDS011;55276;53.260;50.222;2022-07-29T09:58:17;20.10;;;12.57;;
68357;SDS011;55276;53.260;50.222;2022-07-29T10:00:45;18.73;;;12.23;;
68357;SDS011;55276;53.260;50.222;2022-07-29T10:03:12;16.23;;;11.93;;
68357;SDS011;55276;53.260;50.222;2022-07-29T10:08:06;25.85;;;13.23;;
68357;SDS011;55276;53.260;50.222;2022-07-29T10:10:35;18.02;;;13.00;;
68357;SDS011;55276;53.260;50.222;2022-07-29T10:13:07;26.00;;;14.00;;
68357;SDS011;55276;53.260;50.222;2022-07-29T10:15:40;41.35;;;14.15;;
68357;SDS011;55276;53.260;50.222;2022-07-29T10:18:09;23.83;;;13.38;;
68357;SDS011;55276;53.260;50.222;2022-07-29T10:20:38;18.63;;;12.88;;
68357;SDS011;55276;53.260;50.222;2022-07-29T10:23:04;18.25;;;13.25;;
68357;SDS011;55276;53.260;50.222;2022-07-29T10:25:31;19.10;;;12.90;;
68357;SDS011;55276;53.260;50.222;2022-07-29T10:27:57;16.85;;;12.50;;
68357;SDS011;55276;53.260;50.222;2022-07-29T10:30:24;28.75;;;13.48;;
68357;SDS011;55276;53.260;50.222;2022-07-29T10:46:25;25.08;;;14.18;;
68357;SDS011;55276;53.260;50.222;2022-07-29T10:49:09;19.02;;;12.60;;
68357;SDS011;55276;53.260;50.222;2022-07-29T10:52:01;16.58;;;12.70;;
68357;SDS011;55276;53.260;50.222;2022-07-29T10:59:43;18.10;;;13.63;;
68357;SDS011;55276;53.260;50.222;2022-07-29T11:07:25;21.35;;;14.20;;
68357;SDS011;55276;53.260;50.222;2022-07-29T11:15:03;16.88;;;14.00;;
68357;SDS011;55276;53.260;50.222;2022-07-29T11:17:58;19.42;;;13.88;;
68357;SDS011;55276;53.260;50.222;2022-07-29T11:23:25;20.00;;;13.30;;
68357;SDS011;55276;53.260;50.222;2022-07-29T11:34:19;20.77;;;12.30;;
68357;SDS011;55276;53.260;50.222;2022-07-29T11:39:42;16.15;;;11.57;;
68357;SDS011;55276;53.260;50.222;2022-07-29T11:50:16;17.40;;;13.52;;
68357;SDS011;55276;53.260;50.222;2022-07-29T11:52:51;17.40;;;12.02;;
68357;SDS011;55276;53.260;50.222;2022-07-29T11:55:20;16.95;;;11.60;;
68357;SDS011;55276;53.260;50.222;2022-07-29T11:57:49;15.60;;;12.55;;
68357;SDS011;55276;53.260;50.222;2022-07-29T12:00:40;15.60;;;11.90;;
68357;SDS011;55276;53.260;50.222;2022-07-29T12:03:08;16.05;;;11.63;;
68357;SDS011;55276;53.260;50.222;2022-07-29T12:05:37;17.17;;;12.20;;
68357;SDS011;55276;53.260;50.222;2022-07-29T12:08:10;20.60;;;12.23;;
68357;SDS011;55276;53.260;50.222;2022-07-29T12:10:47;14.27;;;12.18;;
68357;SDS011;55276;53.260;50.222;2022-07-29T12:13:16;18.10;;;12.63;;
68357;SDS011;55276;53.260;50.222;2022-07-29T12:19:04;17.52;;;11.93;;
68357;SDS011;55276;53.260;50.222;2022-07-29T12:21:46;20.67;;;12.27;;
68357;SDS011;55276;53.260;50.222;2022-07-29T12:24:13;15.55;;;11.73;;
68357;SDS011;55276;53.260;50.222;2022-07-29T12:26:49;27.02;;;13.63;;
68357;SDS011;55276;53.260;50.222;2022-07-29T12:29:16;16.55;;;11.82;;
68357;SDS011;55276;53.260;50.222;2022-07-29T12:31:42;14.23;;;12.48;;
68357;SDS011;55276;53.260;50.222;2022-07-29T12:34:11;16.80;;;11.50;;
68357;SDS011;55276;53.260;50.222;2022-07-29T12:36:39;18.27;;;12.23;;
68357;SDS011;55276;53.260;50.222;2022-07-29T12:39:06;14.93;;;11.98;;
68357;SDS011;55276;53.260;50.222;2022-07-29T12:41:34;15.27;;;12.43;;
68357;SDS011;55276;53.260;50.222;2022-07-29T12:44:01;16.52;;;12.18;;
68357;SDS011;55276;53.260;50.222;2022-07-29T12:46:27;14.63;;;12.40;;
68357;SDS011;55276;53.260;50.222;2022-07-29T12:48:53;16.60;;;12.20;;
68357;SDS011;55276;53.260;50.222;2022-07-29T12:54:03;17.50;;;11.70;;
68357;SDS011;55276;53.260;50.222;2022-07-29T12:56:42;13.93;;;11.43;;
68357;SDS011;55276;53.260;50.222;2022-07-29T13:01:40;13.85;;;10.55;;
68357;SDS011;55276;53.260;50.222;2022-07-29T13:04:06;21.75;;;12.05;;
68357;SDS011;55276;53.260;50.222;2022-07-29T13:06:37;18.13;;;10.75;;
68357;SDS011;55276;53.260;50.222;2022-07-29T13:09:09;14.73;;;11.63;;
68357;SDS011;55276;53.260;50.222;2022-07-29T13:11:45;12.77;;;10.63;;
68357;SDS011;55276;53.260;50.222;2022-07-29T13:14:31;14.90;;;10.95;;
68357;SDS011;55276;53.260;50.222;2022-07-29T13:17:03;14.30;;;11.35;;
68357;SDS011;55276;53.260;50.222;2022-07-29T13:19:38;14.75;;;10.43;;
68357;SDS011;55276;53.260;50.222;2022-07-29T13:22:09;18.00;;;11.73;;
68357;SDS011;55276;53.260;50.222;2022-07-29T13:24:47;15.93;;;11.20;;
68357;SDS011;55276;53.260;50.222;2022-07-29T13:29:55;14.13;;;11.75;;
68357;SDS011;55276;53.260;50.222;2022-07-29T13:32:23;17.73;;;11.88;;
68357;SDS011;55276;53.260;50.222;2022-07-29T13:34:54;20.52;;;12.98;;
68357;SDS011;55276;53.260;50.222;2022-07-29T13:37:22;19.55;;;12.18;;
68357;SDS011;55276;53.260;50.222;2022-07-29T13:42:14;17.85;;;11.57;;
68357;SDS011;55276;53.260;50.222;2022-07-29T13:44:40;19.27;;;12.90;;
68357;SDS011;55276;53.260;50.222;2022-07-29T13:47:07;19.92;;;12.02;;
68357;SDS011;55276;53.260;50.222;2022-07-29T13:49:34;24.50;;;12.10;;
68357;SDS011;55276;53.260;50.222;2022-07-29T13:52:01;20.23;;;12.50;;
68357;SDS011;55276;53.260;50.222;2022-07-29T13:54:28;17.83;;;12.10;;
68357;SDS011;55276;53.260;50.222;2022-07-29T13:56:56;17.95;;;12.45;;
68357;SDS011;55276;53.260;50.222;2022-07-29T13:59:22;17.67;;;12.85;;
68357;SDS011;55276;53.260;50.222;2022-07-29T14:01:48;18.40;;;13.55;;
68357;SDS011;55276;53.260;50.222;2022-07-29T14:04:14;16.95;;;13.13;;
68357;SDS011;55276;53.260;50.222;2022-07-29T14:06:40;20.67;;;13.63;;
68357;SDS011;55276;53.260;50.222;2022-07-29T14:09:06;16.73;;;12.55;;
68357;SDS011;55276;53.260;50.222;2022-07-29T14:11:35;18.17;;;12.57;;
68357;SDS011;55276;53.260;50.222;2022-07-29T14:14:04;17.58;;;13.05;;
68357;SDS011;55276;53.260;50.222;2022-07-29T14:16:30;24.60;;;13.13;;
68357;SDS011;55276;53.260;50.222;2022-07-29T14:18:56;19.42;;;12.38;;
68357;SDS011;55276;53.260;50.222;2022-07-29T14:21:22;16.67;;;12.93;;
68357;SDS011;55276;53.260;50.222;2022-07-29T14:23:48;19.63;;;14.00;;
68357;SDS011;55276;53.260;50.222;2022-07-29T14:26:14;28.33;;;21.02;;
68357;SDS011;55276;53.260;50.222;2022-07-29T14:28:40;20.83;;;13.23;;
68357;SDS011;55276;53.260;50.222;2022-07-29T14:31:06;21.88;;;12.73;;
68357;SDS011;55276;53.260;50.222;2022-07-29T14:33:34;15.73;;;13.25;;
68357;SDS011;55276;53.260;50.222;2022-07-29T14:36:00;16.67;;;13.15;;
68357;SDS011;55276;53.260;50.222;2022-07-29T14:38:26;19.83;;;14.50;;
68357;SDS011;55276;53.260;50.222;2022-07-29T14:40:52;19.52;;;13.65;;
68357;SDS011;55276;53.260;50.222;2022-07-29T14:43:18;21.13;;;13.63;;
68357;SDS011;55276;53.260;50.222;2022-07-29T14:45:44;18.77;;;13.67;;
68357;SDS011;55276;53.260;50.222;2022-07-29T14:48:10;20.57;;;13.77;;
68357;SDS011;55276;53.260;50.222;2022-07-29T14:50:37;21.07;;;13.93;;
68357;SDS011;55276;53.260;50.222;2022-07-29T14:53:03;18.00;;;13.48;;
68357;SDS011;55276;53.260;50.222;2022-07-29T14:55:29;20.33;;;13.75;;
68357;SDS011;55276;53.260;50.222;2022-07-29T14:57:56;19.27;;;13.10;;
68357;SDS011;55276;53.260;50.222;2022-07-29T15:00:24;18.60;;;13.57;;
68357;SDS011;55276;53.260;50.222;2022-07-29T15:02:51;18.70;;;13.38;;
68357;SDS011;55276;53.260;50.222;2022-07-29T15:05:17;20.20;;;13.60;;
68357;SDS011;55276;53.260;50.222;2022-07-29T15:07:43;19.02;;;14.32;;
68357;SDS011;55276;53.260;50.222;2022-07-29T15:10:09;22.23;;;13.68;;
68357;SDS011;55276;53.260;50.222;2022-07-29T15:12:35;20.45;;;13.88;;
68357;SDS011;55276;53.260;50.222;2022-07-29T15:15:01;20.13;;;14.00;;
68357;SDS011;55276;53.260;50.222;2022-07-29T15:17:27;20.42;;;14.43;;
68357;SDS011;55276;53.260;50.222;2022-07-29T15:19:53;21.42;;;14.02;;
68357;SDS011;55276;53.260;50.222;2022-07-29T15:22:20;20.98;;;14.85;;
68357;SDS011;55276;53.260;50.222;2022-07-29T15:24:46;19.95;;;13.77;;
68357;SDS011;55276;53.260;50.222;2022-07-29T15:27:12;22.85;;;14.32;;
68357;SDS011;55276;53.260;50.222;2022-07-29T15:29:43;19.88;;;14.73;;
68357;SDS011;55276;53.260;50.222;2022-07-29T15:32:09;20.77;;;13.65;;
68357;SDS011;55276;53.260;50.222;2022-07-29T15:34:37;20.27;;;14.25;;
68357;SDS011;55276;53.260;50.222;2022-07-29T15:37:04;20.23;;;14.10;;
68357;SDS011;55276;53.260;50.222;2022-07-29T15:39:31;24.60;;;15.10;;
68357;SDS011;55276;53.260;50.222;2022-07-29T15:41:57;22.38;;;14.95;;
68357;SDS011;55276;53.260;50.222;2022-07-29T15:44:26;18.92;;;14.27;;
68357;SDS011;55276;53.260;50.222;2022-07-29T15:46:52;23.67;;;14.70;;
68357;SDS011;55276;53.260;50.222;2022-07-29T15:49:34;21.15;;;14.80;;